Terminal Aerodrome Forecast
Issued by NWS

Home | Current Version | Previous Version | Text Only | Print | Product List | Glossary On
Versions: 1 2 3 4 5 6 7 8 9 10 11 12 13 14 15
000
FTUS42 TJSJ 162300
TAFKPK
TAF
TKPK 162323Z 1700/1724 05005KT P6SM SCT017 SCT040
     FM171400 12012KT P6SM FEW020 SCT050
     FM172330 07007KT P6SM FEW020 SCT050=

USA.gov is the U.S. government's official web portal to all federal, state and local government web resources and services.